createdAt,value
2022-09-25T00:00:49.072Z,99049.47
2022-09-25T00:03:17.050Z,99049.47
2022-09-25T00:05:45.643Z,99056.31
2022-09-25T00:08:13.119Z,99059.72
2022-09-25T00:10:50.746Z,99054.09
2022-09-25T00:13:20.088Z,99060.16
2022-09-25T00:15:55.913Z,99053.78
2022-09-25T00:18:42.590Z,99052.63
2022-09-25T00:21:12.632Z,99057.19
2022-09-25T00:23:40.037Z,99055.16
2022-09-25T00:26:08.768Z,99057.03
2022-09-25T00:28:36.501Z,99061.91
2022-09-25T00:31:04.722Z,99057.53
2022-09-25T00:33:35.237Z,99058.53
2022-09-25T00:36:09.530Z,99056.00
2022-09-25T00:38:37.847Z,99054.84
2022-09-25T00:41:06.377Z,99060.22
2022-09-25T00:43:48.128Z,99063.06
2022-09-25T00:46:27.604Z,99055.16
2022-09-25T00:49:10.288Z,99060.63
2022-09-25T00:51:42.257Z,99058.59
2022-09-25T00:54:22.264Z,99053.63
2022-09-25T00:56:51.329Z,99053.63
2022-09-25T00:59:22.259Z,99062.22
2022-09-25T01:01:48.838Z,99047.78
2022-09-25T01:04:17.114Z,99051.09
2022-09-25T01:06:44.017Z,99057.19
2022-09-25T01:09:11.039Z,99042.47
2022-09-25T01:11:37.481Z,99043.88
2022-09-25T01:14:06.427Z,99048.41
2022-09-25T01:17:02.115Z,99042.19
2022-09-25T01:19:35.410Z,99044.88
2022-09-25T01:22:56.275Z,99046.06
2022-09-25T01:25:47.606Z,99047.94
2022-09-25T01:28:31.783Z,99045.72
2022-09-25T01:31:04.540Z,99043.34
2022-09-25T01:33:45.164Z,99046.69
2022-09-25T01:36:17.095Z,99046.69
2022-09-25T01:38:52.430Z,99043.19
2022-09-25T01:41:37.486Z,99036.09
2022-09-25T01:44:10.007Z,99033.41
2022-09-25T01:46:42.584Z,99038.50
2022-09-25T01:49:17.770Z,99043.03
2022-09-25T01:51:47.195Z,99054.66
2022-09-25T01:54:20.872Z,99048.94
2022-09-25T01:56:55.858Z,99048.41
2022-09-25T01:59:49.238Z,99043.03
2022-09-25T02:02:21.581Z,99042.31
2022-09-25T02:05:08.111Z,99037.78
2022-09-25T02:07:41.115Z,99049.88
2022-09-25T02:10:16.745Z,99039.94
2022-09-25T02:12:50.800Z,99047.03
2022-09-25T02:15:22.523Z,99043.50
2022-09-25T02:18:16.676Z,99045.00
2022-09-25T02:20:47.702Z,99049.28
2022-09-25T02:23:48.416Z,99050.09
2022-09-25T02:26:25.677Z,99047.41
2022-09-25T02:28:53.786Z,99043.38
2022-09-25T02:31:22.816Z,99043.22
2022-09-25T02:33:50.249Z,99049.28
2022-09-25T02:36:19.047Z,99047.09
2022-09-25T02:38:47.191Z,99045.25
2022-09-25T02:41:25.682Z,99046.94
2022-09-25T02:44:03.795Z,99039.03
2022-09-25T02:46:42.555Z,99042.06
2022-09-25T02:49:47.786Z,99053.16
2022-09-25T02:52:22.703Z,99054.78
2022-09-25T02:55:06.682Z,99055.00
2022-09-25T02:57:54.077Z,99054.78
2022-09-25T03:00:23.401Z,99051.34
2022-09-25T03:02:56.234Z,99050.09
2022-09-25T03:05:25.007Z,99049.28
2022-09-25T03:08:13.651Z,99054.66
2022-09-25T03:10:41.165Z,99044.31
2022-09-25T03:13:19.376Z,99049.41
2022-09-25T03:15:51.850Z,99048.00
2022-09-25T03:18:18.301Z,99046.56
2022-09-25T03:20:45.181Z,99044.31
2022-09-25T03:23:11.651Z,99047.03
2022-09-25T03:25:38.654Z,99054.09
2022-09-25T03:28:10.531Z,99056.16
2022-09-25T03:30:40.994Z,99056.06
2022-09-25T03:33:10.330Z,99051.72
2022-09-25T03:35:38.107Z,99046.28
2022-09-25T03:38:08.081Z,99043.97
2022-09-25T03:40:34.710Z,99042.91
2022-09-25T03:45:28.713Z,99047.63
2022-09-25T03:47:55.261Z,99040.72
2022-09-25T03:50:21.760Z,99043.53
2022-09-25T03:52:48.230Z,99036.88
2022-09-25T03:55:14.709Z,99047.94
2022-09-25T03:57:41.530Z,99042.19
2022-09-25T04:00:08.393Z,99047.25
2022-09-25T04:02:34.933Z,99043.34
2022-09-25T04:05:03.475Z,99046.22
2022-09-25T04:07:30.245Z,99043.53
2022-09-25T04:09:56.797Z,99042.50
2022-09-25T04:12:23.196Z,99043.84
2022-09-25T04:14:49.636Z,99050.19
2022-09-25T04:17:16.335Z,99048.16
2022-09-25T04:19:42.822Z,99044.66
2022-09-25T04:22:09.587Z,99045.13
2022-09-25T04:24:51.386Z,99048.91
2022-09-25T04:27:23.159Z,99048.84
2022-09-25T04:29:50.359Z,99052.53
2022-09-25T04:32:35.790Z,99049.91
2022-09-25T04:35:02.651Z,99046.84
2022-09-25T04:37:29.418Z,99055.56
2022-09-25T04:39:57.086Z,99057.28
2022-09-25T04:42:24.718Z,99050.34
2022-09-25T04:44:53.538Z,99057.59
2022-09-25T04:47:21.458Z,99053.56
2022-09-25T04:49:48.562Z,99057.91
2022-09-25T04:52:16.675Z,99052.88
2022-09-25T04:54:43.449Z,99062.34
2022-09-25T04:57:27.412Z,99059.28
2022-09-25T05:00:01.908Z,99063.94
2022-09-25T05:02:28.774Z,99060.50
2022-09-25T05:04:55.377Z,99059.16
2022-09-25T05:07:21.913Z,99057.97
2022-09-25T05:09:48.338Z,99063.50
2022-09-25T05:12:15.672Z,99064.97
2022-09-25T05:14:42.581Z,99062.53
2022-09-25T05:17:11.300Z,99062.66
2022-09-25T05:19:38.754Z,99067.66
2022-09-25T05:22:05.369Z,99063.94
2022-09-25T05:24:31.942Z,99071.50
2022-09-25T05:26:58.978Z,99075.72
2022-09-25T05:29:25.397Z,99081.09
2022-09-25T05:31:51.984Z,99072.34
2022-09-25T05:34:18.429Z,99079.19
2022-09-25T05:36:44.918Z,99076.66
2022-09-25T05:39:14.447Z,99080.97
2022-09-25T05:41:41.466Z,99086.56
2022-09-25T05:44:09.699Z,99079.59
2022-09-25T05:46:37.209Z,99090.88
2022-09-25T05:49:04.459Z,99082.50
2022-09-25T05:51:31.463Z,99082.50
2022-09-25T05:53:58.330Z,99091.34
2022-09-25T05:56:24.767Z,99091.19
2022-09-25T05:58:52.876Z,99094.03
2022-09-25T06:01:20.056Z,99090.34
2022-09-25T06:03:46.699Z,99091.50
2022-09-25T06:06:13.228Z,99091.28
2022-09-25T06:08:39.845Z,99088.66
2022-09-25T06:11:07.719Z,99094.34
2022-09-25T06:13:36.878Z,99084.91
2022-09-25T06:16:05.363Z,99092.50
2022-09-25T06:18:33.548Z,99088.97
2022-09-25T06:21:02.474Z,99092.97
2022-09-25T06:23:29.561Z,99086.44
2022-09-25T06:26:04.016Z,99092.03
2022-09-25T06:28:31.091Z,99098.41
2022-09-25T06:31:01.524Z,99094.56
2022-09-25T06:33:28.136Z,99100.78
2022-09-25T06:35:54.699Z,99095.19
2022-09-25T06:38:21.124Z,99093.34
2022-09-25T06:40:47.793Z,99093.13
2022-09-25T06:43:16.069Z,99097.16
2022-09-25T06:45:43.061Z,99104.78
2022-09-25T06:48:12.649Z,99103.91
2022-09-25T06:50:57.056Z,99100.91
2022-09-25T06:53:25.081Z,99097.75
2022-09-25T06:55:51.908Z,99101.13
2022-09-25T06:58:23.482Z,99102.19
2022-09-25T07:00:52.019Z,99101.34
2022-09-25T07:03:37.539Z,99100.72
2022-09-25T07:06:06.471Z,99103.41
2022-09-25T07:08:33.330Z,99108.25
2022-09-25T07:11:00.065Z,99104.41
2022-09-25T07:13:29.840Z,99111.47
2022-09-25T07:15:58.762Z,99105.25
2022-09-25T07:18:27.061Z,99104.03
2022-09-25T07:20:53.871Z,99112.78
2022-09-25T07:23:22.433Z,99110.78
2022-09-25T07:25:49.184Z,99112.94
2022-09-25T07:28:18.893Z,99116.38
2022-09-25T07:30:46.585Z,99107.94
2022-09-25T07:33:13.205Z,99119.00
2022-09-25T07:35:39.892Z,99110.16
2022-09-25T07:38:06.415Z,99114.34
2022-09-25T07:40:35.494Z,99116.00
2022-09-25T07:43:03.223Z,99118.22
2022-09-25T07:45:29.812Z,99118.53
2022-09-25T07:48:00.716Z,99121.91
2022-09-25T07:50:31.886Z,99126.28
2022-09-25T07:52:59.103Z,99123.06
2022-09-25T07:55:28.474Z,99122.25
2022-09-25T07:57:58.265Z,99118.75
2022-09-25T08:00:25.009Z,99124.44
2022-09-25T08:02:59.142Z,99119.22
2022-09-25T08:05:27.088Z,99129.50
2022-09-25T08:07:54.344Z,99128.00
2022-09-25T08:10:21.768Z,99128.34
2022-09-25T08:12:48.699Z,99130.03
2022-09-25T08:15:15.397Z,99126.00
2022-09-25T08:17:42.726Z,99125.69
2022-09-25T08:20:10.209Z,99128.53
2022-09-25T08:22:36.990Z,99125.69
2022-09-25T08:25:03.738Z,99126.41
2022-09-25T08:27:31.192Z,99120.41
2022-09-25T08:29:58.732Z,99128.25
2022-09-25T08:32:25.167Z,99131.06
2022-09-25T08:34:51.757Z,99126.41
2022-09-25T08:37:19.701Z,99134.38
2022-09-25T08:39:46.178Z,99127.84
2022-09-25T08:42:20.068Z,99132.53
2022-09-25T08:45:21.132Z,99131.31
2022-09-25T08:48:07.990Z,99135.91
2022-09-25T08:50:35.262Z,99144.00
2022-09-25T08:53:23.933Z,99137.59
2022-09-25T08:56:09.839Z,99146.53
2022-09-25T08:58:42.655Z,99151.25
2022-09-25T09:01:20.109Z,99144.06
2022-09-25T09:04:14.018Z,99146.25
2022-09-25T09:06:42.575Z,99142.56
2022-09-25T09:09:20.913Z,99139.88
2022-09-25T09:11:56.169Z,99137.38
2022-09-25T09:14:24.499Z,99135.94
2022-09-25T09:17:05.219Z,99144.56
2022-09-25T09:19:31.819Z,99134.03
2022-09-25T09:22:10.133Z,99135.69
2022-09-25T09:24:39.760Z,99134.53
2022-09-25T09:27:31.385Z,99145.03
2022-09-25T09:30:23.914Z,99138.63
2022-09-25T09:33:02.250Z,99119.25
2022-09-25T09:35:50.239Z,99123.13
2022-09-25T09:38:21.899Z,99131.19
2022-09-25T09:41:08.173Z,99123.13
2022-09-25T09:44:00.079Z,99120.41
2022-09-25T09:46:36.976Z,99111.97
2022-09-25T09:49:25.213Z,99111.84
2022-09-25T09:52:10.093Z,99107.47
2022-09-25T09:55:09.442Z,99103.25
2022-09-25T09:57:45.486Z,99102.59
2022-09-25T10:00:18.061Z,99106.25
2022-09-25T10:03:01.602Z,99097.66
2022-09-25T10:05:33.913Z,99096.84
2022-09-25T10:08:01.124Z,99107.56
2022-09-25T10:10:39.406Z,99103.53
2022-09-25T10:13:19.267Z,99106.97
2022-09-25T10:16:11.434Z,99102.59
2022-09-25T10:18:53.242Z,99102.78
2022-09-25T10:21:23.489Z,99082.72
2022-09-25T10:23:51.116Z,99076.34
2022-09-25T10:26:26.493Z,99086.63
2022-09-25T10:28:57.325Z,99072.47
2022-09-25T10:31:27.906Z,99084.47
2022-09-25T10:34:12.959Z,99080.41
2022-09-25T10:36:43.373Z,99083.47
2022-09-25T10:39:44.766Z,99074.00
2022-09-25T10:42:33.497Z,99075.19
2022-09-25T10:45:19.997Z,99073.31
2022-09-25T10:48:15.909Z,99075.66
2022-09-25T10:50:42.909Z,99073.31
2022-09-25T10:53:32.312Z,99087.94
2022-09-25T10:56:08.482Z,99085.09
2022-09-25T10:58:41.115Z,99084.91
2022-09-25T11:01:13.108Z,99088.25
2022-09-25T11:03:57.031Z,99086.56
2022-09-25T11:06:30.370Z,99084.91
2022-09-25T11:09:29.378Z,99072.59
2022-09-25T11:12:13.399Z,99078.97
2022-09-25T11:14:46.230Z,99075.25
2022-09-25T11:17:42.073Z,99069.81
2022-09-25T11:20:43.709Z,99067.47
2022-09-25T11:23:23.780Z,99071.41
2022-09-25T11:26:14.035Z,99069.44
2022-09-25T11:28:55.485Z,99060.53
2022-09-25T11:31:46.449Z,99053.56
2022-09-25T11:34:39.075Z,99036.88
2022-09-25T11:37:25.296Z,99044.44
2022-09-25T11:40:28.682Z,99048.63
2022-09-25T11:43:11.080Z,99045.72
2022-09-25T11:45:44.176Z,99034.59
2022-09-25T11:48:23.217Z,99049.84
2022-09-25T11:50:57.464Z,99049.84
2022-09-25T11:53:33.400Z,99042.47
2022-09-25T11:56:12.792Z,99031.50
2022-09-25T11:58:39.233Z,99034.34
2022-09-25T12:01:14.945Z,99030.91
2022-09-25T12:04:12.686Z,99030.84
2022-09-25T12:06:53.252Z,99028.22
2022-09-25T12:09:51.937Z,99019.09
2022-09-25T12:12:51.447Z,99013.78
2022-09-25T12:15:31.538Z,99010.59
2022-09-25T12:18:13.146Z,99009.78
2022-09-25T12:21:01.699Z,98990.06
2022-09-25T12:23:34.241Z,98995.66
2022-09-25T12:26:16.399Z,98992.66
2022-09-25T12:28:42.944Z,98992.38
2022-09-25T12:31:39.503Z,98984.81
2022-09-25T12:34:27.356Z,98980.72
2022-09-25T12:37:09.143Z,98988.34
2022-09-25T12:39:41.192Z,98987.25
2022-09-25T12:42:17.761Z,98990.38
2022-09-25T12:44:53.070Z,98983.16
2022-09-25T12:47:25.421Z,98985.25
2022-09-25T12:50:03.781Z,98990.19
2022-09-25T12:52:37.975Z,98972.16
2022-09-25T12:55:32.187Z,98968.53
2022-09-25T12:58:23.062Z,98970.81
2022-09-25T13:00:55.174Z,98958.34
2022-09-25T13:03:40.000Z,98958.63
2022-09-25T13:06:27.071Z,98955.59
2022-09-25T13:09:07.966Z,98955.84
2022-09-25T13:11:51.734Z,98951.53
2022-09-25T13:14:34.507Z,98947.28
2022-09-25T13:17:01.772Z,98938.47
2022-09-25T13:19:30.675Z,98941.19
2022-09-25T13:22:25.040Z,98941.38
2022-09-25T13:25:03.087Z,98929.84
2022-09-25T13:27:40.351Z,98942.94
2022-09-25T13:30:07.563Z,98933.06
2022-09-25T13:32:38.206Z,98928.75
2022-09-25T13:35:19.392Z,98926.44
2022-09-25T13:37:48.184Z,98932.31
2022-09-25T13:40:45.967Z,98925.22
2022-09-25T13:43:21.139Z,98920.34
2022-09-25T13:45:49.199Z,98919.91
2022-09-25T13:48:34.152Z,98913.22
2022-09-25T13:51:36.484Z,98917.09
2022-09-25T13:54:08.965Z,98928.56
2022-09-25T13:56:41.325Z,98925.72
2022-09-25T13:59:13.676Z,98919.63
2022-09-25T14:01:51.555Z,98917.72
2022-09-25T14:04:29.301Z,98916.41
2022-09-25T14:07:12.958Z,98916.22
2022-09-25T14:09:44.768Z,98911.50
2022-09-25T14:12:23.368Z,98907.72
2022-09-25T14:15:06.049Z,98907.13
2022-09-25T14:17:35.884Z,98904.69
2022-09-25T14:20:07.209Z,98899.97
2022-09-25T14:22:44.121Z,98893.78
2022-09-25T14:25:46.676Z,98902.38
2022-09-25T14:28:25.504Z,98900.16
2022-09-25T14:30:57.380Z,98904.59
2022-09-25T14:33:37.231Z,98902.53
2022-09-25T14:36:22.309Z,98902.44
2022-09-25T14:39:20.043Z,98903.31
2022-09-25T14:41:54.397Z,98896.69
2022-09-25T14:44:59.894Z,98894.44
2022-09-25T14:47:33.705Z,98886.25
2022-09-25T14:50:00.700Z,98880.91
2022-09-25T14:52:32.901Z,98876.78
2022-09-25T14:55:00.549Z,98875.94
2022-09-25T14:57:30.974Z,98879.88
2022-09-25T15:00:02.200Z,98879.50
2022-09-25T15:02:34.133Z,98877.16
2022-09-25T15:05:17.457Z,98884.06
2022-09-25T15:07:46.292Z,98881.81
2022-09-25T15:10:32.581Z,98879.94
2022-09-25T15:13:19.044Z,98878.13
2022-09-25T15:16:15.062Z,98875.28
2022-09-25T15:18:51.189Z,98868.47
2022-09-25T15:21:25.119Z,98868.66
2022-09-25T15:23:54.460Z,98861.88
2022-09-25T15:26:21.487Z,98864.94
2022-09-25T15:28:48.754Z,98860.00
2022-09-25T15:31:15.419Z,98860.16
2022-09-25T15:33:42.153Z,98863.78
2022-09-25T15:36:16.763Z,98865.47
2022-09-25T15:38:44.449Z,98861.72
2022-09-25T15:41:17.208Z,98864.53
2022-09-25T15:43:44.777Z,98865.50
2022-09-25T15:46:11.234Z,98859.78
2022-09-25T15:48:50.361Z,98856.16
2022-09-25T15:51:22.256Z,98859.72
2022-09-25T15:53:57.127Z,98862.09
2022-09-25T15:56:49.033Z,98864.69
2022-09-25T15:59:23.984Z,98864.38
2022-09-25T16:02:09.407Z,98860.69
2022-09-25T16:04:49.290Z,98861.34
2022-09-25T16:07:23.295Z,98856.72
2022-09-25T16:09:52.427Z,98853.22
2022-09-25T16:12:50.565Z,98856.22
2022-09-25T16:15:26.192Z,98859.25
2022-09-25T16:18:02.892Z,98854.66
2022-09-25T16:20:35.984Z,98859.25
2022-09-25T16:23:16.615Z,98851.06
2022-09-25T16:25:44.570Z,98851.81
2022-09-25T16:28:24.274Z,98859.19
2022-09-25T16:31:10.466Z,98859.56
2022-09-25T16:33:41.193Z,98850.41
2022-09-25T16:36:17.487Z,98852.75
2022-09-25T16:39:03.842Z,98853.38
2022-09-25T16:41:30.345Z,98858.56
2022-09-25T16:44:17.656Z,98849.63
2022-09-25T16:46:56.548Z,98856.53
2022-09-25T16:49:23.844Z,98854.97
2022-09-25T16:51:53.961Z,98862.88
2022-09-25T16:54:22.517Z,98870.84
2022-09-25T16:56:49.269Z,98868.09
2022-09-25T16:59:25.998Z,98869.81
2022-09-25T17:01:55.891Z,98870.84
2022-09-25T17:04:27.076Z,98862.47
2022-09-25T17:06:57.883Z,98869.41
2022-09-25T17:09:29.380Z,98872.28
2022-09-25T17:12:05.084Z,98864.69
2022-09-25T17:14:32.119Z,98871.94
2022-09-25T17:16:58.982Z,98877.84
2022-09-25T17:19:25.616Z,98877.66
2022-09-25T17:21:53.446Z,98890.59
2022-09-25T17:24:25.408Z,98889.41
2022-09-25T17:26:52.627Z,98895.78
2022-09-25T17:29:20.367Z,98896.06
2022-09-25T17:31:46.857Z,98903.09
2022-09-25T17:34:19.549Z,98904.25
2022-09-25T17:36:46.087Z,98909.38
2022-09-25T17:39:12.998Z,98908.50
2022-09-25T17:41:40.344Z,98904.94
2022-09-25T17:44:08.854Z,98903.00
2022-09-25T17:46:36.160Z,98910.13
2022-09-25T17:49:03.794Z,98910.91
2022-09-25T17:51:30.635Z,98913.16
2022-09-25T17:53:59.122Z,98919.00
2022-09-25T17:56:29.600Z,98923.72
2022-09-25T17:58:57.336Z,98921.19
2022-09-25T18:01:27.291Z,98924.44
2022-09-25T18:03:59.578Z,98928.75
2022-09-25T18:06:28.286Z,98939.78
2022-09-25T18:08:55.995Z,98935.03
2022-09-25T18:11:24.441Z,98936.06
2022-09-25T18:13:56.879Z,98940.06
2022-09-25T18:16:29.870Z,98941.38
2022-09-25T18:19:15.247Z,98940.25
2022-09-25T18:22:00.209Z,98941.47
2022-09-25T18:24:26.870Z,98942.91
2022-09-25T18:26:55.031Z,98946.72
2022-09-25T18:29:21.780Z,98952.53
2022-09-25T18:31:48.805Z,98953.13
2022-09-25T18:34:18.281Z,98965.00
2022-09-25T18:36:45.312Z,98957.38
2022-09-25T18:39:14.945Z,98960.09
2022-09-25T18:41:45.587Z,98963.19
2022-09-25T18:44:13.071Z,98967.84
2022-09-25T18:46:39.712Z,98968.53
2022-09-25T18:49:06.747Z,98965.28
2022-09-25T18:51:34.065Z,98966.66
2022-09-25T18:54:01.652Z,98974.97
2022-09-25T18:56:28.257Z,98967.19
2022-09-25T18:58:54.768Z,98965.78
2022-09-25T19:01:21.303Z,98962.97
2022-09-25T19:03:51.969Z,98963.13
2022-09-25T19:06:18.909Z,98967.22
2022-09-25T19:08:51.787Z,98968.09
2022-09-25T19:11:18.702Z,98970.69
2022-09-25T19:13:45.882Z,98970.47
2022-09-25T19:16:12.346Z,98971.16
2022-09-25T19:18:38.960Z,98970.63
2022-09-25T19:21:05.467Z,98970.63
2022-09-25T19:23:35.451Z,98968.81
2022-09-25T19:26:04.956Z,98970.63
2022-09-25T19:28:34.017Z,98966.56
2022-09-25T19:31:13.671Z,98962.63
2022-09-25T19:33:40.173Z,98972.78
2022-09-25T19:36:10.185Z,98974.72
2022-09-25T19:38:38.555Z,98957.28
2022-09-25T19:41:18.099Z,98967.97
2022-09-25T19:43:45.659Z,98970.81
2022-09-25T19:46:14.860Z,98966.03
2022-09-25T19:48:41.497Z,98960.13
2022-09-25T19:51:09.438Z,98964.03
2022-09-25T19:53:36.509Z,98969.66
2022-09-25T19:56:03.549Z,98980.63
2022-09-25T19:58:31.703Z,98976.69
2022-09-25T20:00:58.310Z,98974.13
2022-09-25T20:03:24.720Z,98976.38
2022-09-25T20:05:51.409Z,98972.72
2022-09-25T20:08:18.079Z,98969.44
2022-09-25T20:10:44.713Z,98969.56
2022-09-25T20:13:13.394Z,98963.13
2022-09-25T20:15:41.357Z,98967.50
2022-09-25T20:18:07.835Z,98965.09
2022-09-25T20:20:34.276Z,98967.06
2022-09-25T20:23:00.819Z,98964.81
2022-09-25T20:25:28.015Z,98958.75
2022-09-25T20:27:54.838Z,98962.34
2022-09-25T20:30:24.701Z,98960.13
2022-09-25T20:32:51.895Z,98960.00
2022-09-25T20:35:19.726Z,98958.44
2022-09-25T20:37:46.608Z,98956.88
2022-09-25T20:40:14.868Z,98962.22
2022-09-25T20:42:41.818Z,98951.22
2022-09-25T20:45:10.027Z,98948.13
2022-09-25T20:47:36.576Z,98950.09
2022-09-25T20:50:04.792Z,98942.63
2022-09-25T20:52:32.876Z,98944.56
2022-09-25T20:54:59.766Z,98942.19
2022-09-25T20:57:26.206Z,98934.72
2022-09-25T20:59:52.628Z,98947.06
2022-09-25T21:02:19.303Z,98941.13
2022-09-25T21:04:45.741Z,98936.31
2022-09-25T21:07:16.723Z,98937.31
2022-09-25T21:09:43.641Z,98931.41
2022-09-25T21:12:10.096Z,98935.75
2022-09-25T21:14:37.010Z,98934.06
2022-09-25T21:17:03.861Z,98930.53
2022-09-25T21:19:31.690Z,98930.09
2022-09-25T21:21:58.063Z,98925.75
2022-09-25T21:24:24.500Z,98922.94
2022-09-25T21:26:51.251Z,98933.63
2022-09-25T21:29:18.187Z,98930.91
2022-09-25T21:31:49.737Z,98925.25
2022-09-25T21:34:19.739Z,98920.91
2022-09-25T21:36:46.333Z,98918.63
2022-09-25T21:39:13.387Z,98920.97
2022-09-25T21:41:40.395Z,98925.84
2022-09-25T21:44:13.528Z,98918.22
2022-09-25T21:46:40.698Z,98916.81
2022-09-25T21:49:08.364Z,98920.19
2022-09-25T21:51:42.543Z,98920.19
2022-09-25T21:54:10.344Z,98906.72
2022-09-25T21:56:36.852Z,98912.91
2022-09-25T21:59:08.862Z,98909.25
2022-09-25T22:01:38.255Z,98909.78
2022-09-25T22:04:05.590Z,98908.34
2022-09-25T22:06:37.773Z,98904.25
2022-09-25T22:09:10.948Z,98905.22
2022-09-25T22:11:38.449Z,98903.53
2022-09-25T22:14:05.747Z,98900.59
2022-09-25T22:16:35.403Z,98899.66
2022-09-25T22:19:08.127Z,98897.69
2022-09-25T22:21:35.727Z,98900.75
2022-09-25T22:24:02.857Z,98893.28
2022-09-25T22:26:30.975Z,98902.25
2022-09-25T22:28:57.511Z,98888.31
2022-09-25T22:31:26.867Z,98891.50
2022-09-25T22:33:56.261Z,98898.78
2022-09-25T22:36:23.013Z,98893.59
2022-09-25T22:38:49.506Z,98888.25
2022-09-25T22:41:16.025Z,98891.16
2022-09-25T22:43:42.762Z,98887.66
2022-09-25T22:46:11.322Z,98892.16
2022-09-25T22:48:38.578Z,98886.97
2022-09-25T22:51:07.522Z,98882.59
2022-09-25T22:53:35.248Z,98888.19
2022-09-25T22:56:29.052Z,98883.97
2022-09-25T22:59:01.269Z,98876.34
2022-09-25T23:02:01.429Z,98880.19
2022-09-25T23:04:27.932Z,98880.03
2022-09-25T23:06:54.523Z,98877.38
2022-09-25T23:09:24.850Z,98872.91
2022-09-25T23:11:52.913Z,98873.03
2022-09-25T23:14:22.525Z,98868.94
2022-09-25T23:16:51.097Z,98866.00
2022-09-25T23:19:18.432Z,98861.53
2022-09-25T23:21:48.172Z,98859.38
2022-09-25T23:24:17.761Z,98854.75
2022-09-25T23:26:45.445Z,98839.47
2022-09-25T23:29:14.548Z,98843.00
2022-09-25T23:31:42.217Z,98841.31
2022-09-25T23:34:09.395Z,98842.47
2022-09-25T23:36:36.585Z,98841.31
2022-09-25T23:39:04.287Z,98833.56
2022-09-25T23:41:34.206Z,98830.19
2022-09-25T23:44:02.610Z,98823.75
2022-09-25T23:46:31.974Z,98817.78
2022-09-25T23:48:59.518Z,98817.53
2022-09-25T23:51:27.171Z,98827.91
2022-09-25T23:53:55.618Z,98825.53
2022-09-25T23:56:25.006Z,98819.19
2022-09-25T23:58:52.390Z,98823.16
